sensor_id;sensor_type;location;lat;lon;timestamp;temperature;humidity
1948;DHT22;974;52.400;9.818;2022-12-18T00:01:33;-6.40;99.90
1948;DHT22;974;52.400;9.818;2022-12-18T00:04:00;-6.40;99.90
1948;DHT22;974;52.400;9.818;2022-12-18T00:06:27;-6.40;99.90
1948;DHT22;974;52.400;9.818;2022-12-18T00:08:55;-6.40;99.90
1948;DHT22;974;52.400;9.818;2022-12-18T00:11:23;-6.50;99.90
1948;DHT22;974;52.400;9.818;2022-12-18T00:13:49;-6.50;99.90
1948;DHT22;974;52.400;9.818;2022-12-18T00:16:18;-6.50;99.90
1948;DHT22;974;52.400;9.818;2022-12-18T00:18:46;-6.40;99.90
1948;DHT22;974;52.400;9.818;2022-12-18T00:21:13;-6.40;99.90
1948;DHT22;974;52.400;9.818;2022-12-18T00:23:40;-6.40;99.90
1948;DHT22;974;52.400;9.818;2022-12-18T00:26:09;-6.40;99.90
1948;DHT22;974;52.400;9.818;2022-12-18T00:28:35;-6.50;99.90
1948;DHT22;974;52.400;9.818;2022-12-18T00:31:09;-6.50;99.90
1948;DHT22;974;52.400;9.818;2022-12-18T00:33:36;-6.50;99.90
1948;DHT22;974;52.400;9.818;2022-12-18T00:36:07;-6.50;99.90
1948;DHT22;974;52.400;9.818;2022-12-18T00:38:34;-6.50;99.90
1948;DHT22;974;52.400;9.818;2022-12-18T00:41:01;-6.50;99.90
1948;DHT22;974;52.400;9.818;2022-12-18T00:43:26;-6.50;99.90
1948;DHT22;974;52.400;9.818;2022-12-18T00:45:52;-6.40;99.90
1948;DHT22;974;52.400;9.818;2022-12-18T00:48:18;-6.40;99.90
1948;DHT22;974;52.400;9.818;2022-12-18T00:50:43;-6.30;99.90
1948;DHT22;974;52.400;9.818;2022-12-18T00:53:09;-6.20;99.90
1948;DHT22;974;52.400;9.818;2022-12-18T00:55:34;-6.00;99.90
1948;DHT22;974;52.400;9.818;2022-12-18T00:58:00;-6.00;99.90
1948;DHT22;974;52.400;9.818;2022-12-18T01:00:25;-6.00;99.90
1948;DHT22;974;52.400;9.818;2022-12-18T01:02:51;-6.10;99.90
1948;DHT22;974;52.400;9.818;2022-12-18T01:05:16;-6.10;99.90
1948;DHT22;974;52.400;9.818;2022-12-18T01:07:42;-6.10;99.90
1948;DHT22;974;52.400;9.818;2022-12-18T01:10:09;-6.00;99.90
1948;DHT22;974;52.400;9.818;2022-12-18T01:12:36;-5.90;99.90
1948;DHT22;974;52.400;9.818;2022-12-18T01:15:02;-5.90;99.90
1948;DHT22;974;52.400;9.818;2022-12-18T01:17:28;-5.80;99.90
1948;DHT22;974;52.400;9.818;2022-12-18T01:19:54;-5.80;99.90
1948;DHT22;974;52.400;9.818;2022-12-18T01:22:19;-5.70;99.90
1948;DHT22;974;52.400;9.818;2022-12-18T01:24:45;-5.60;99.90
1948;DHT22;974;52.400;9.818;2022-12-18T01:27:10;-5.50;99.90
1948;DHT22;974;52.400;9.818;2022-12-18T01:29:36;-5.40;99.90
1948;DHT22;974;52.400;9.818;2022-12-18T01:32:01;-5.30;99.90
1948;DHT22;974;52.400;9.818;2022-12-18T01:34:27;-5.30;99.90
1948;DHT22;974;52.400;9.818;2022-12-18T01:36:52;-5.50;99.90
1948;DHT22;974;52.400;9.818;2022-12-18T01:39:18;-5.30;99.90
1948;DHT22;974;52.400;9.818;2022-12-18T01:41:44;-5.30;99.90
1948;DHT22;974;52.400;9.818;2022-12-18T01:44:58;-5.40;99.90
1948;DHT22;974;52.400;9.818;2022-12-18T01:49:58;-5.40;99.90
1948;DHT22;974;52.400;9.818;2022-12-18T01:52:26;-5.50;99.90
1948;DHT22;974;52.400;9.818;2022-12-18T01:54:54;-5.60;99.90
1948;DHT22;974;52.400;9.818;2022-12-18T01:57:20;-5.60;99.90
1948;DHT22;974;52.400;9.818;2022-12-18T01:59:50;-5.60;99.90
1948;DHT22;974;52.400;9.818;2022-12-18T02:02:18;-5.70;99.90
1948;DHT22;974;52.400;9.818;2022-12-18T02:04:44;-5.70;99.90
1948;DHT22;974;52.400;9.818;2022-12-18T02:07:34;-5.70;99.90
1948;DHT22;974;52.400;9.818;2022-12-18T02:10:22;-5.80;99.90
1948;DHT22;974;52.400;9.818;2022-12-18T02:18:13;-6.00;99.90
1948;DHT22;974;52.400;9.818;2022-12-18T02:20:49;-6.10;99.90
1948;DHT22;974;52.400;9.818;2022-12-18T02:23:40;-6.20;99.90
1948;DHT22;974;52.400;9.818;2022-12-18T02:26:35;-6.20;99.90
1948;DHT22;974;52.400;9.818;2022-12-18T02:29:15;-6.20;99.90
1948;DHT22;974;52.400;9.818;2022-12-18T02:31:52;-6.30;99.90
1948;DHT22;974;52.400;9.818;2022-12-18T02:34:20;-6.40;99.90
1948;DHT22;974;52.400;9.818;2022-12-18T02:36:48;-6.40;99.90
1948;DHT22;974;52.400;9.818;2022-12-18T02:39:16;-6.50;99.90
1948;DHT22;974;52.400;9.818;2022-12-18T02:41:42;-6.50;99.90
1948;DHT22;974;52.400;9.818;2022-12-18T02:44:10;-6.60;99.90
1948;DHT22;974;52.400;9.818;2022-12-18T02:46:39;-6.60;99.90
1948;DHT22;974;52.400;9.818;2022-12-18T02:49:25;-6.70;99.90
1948;DHT22;974;52.400;9.818;2022-12-18T03:01:02;-7.00;99.90
1948;DHT22;974;52.400;9.818;2022-12-18T03:03:46;-7.10;99.90
1948;DHT22;974;52.400;9.818;2022-12-18T03:06:47;-7.10;99.90
1948;DHT22;974;52.400;9.818;2022-12-18T03:09:29;-7.10;99.90
1948;DHT22;974;52.400;9.818;2022-12-18T03:12:02;-7.00;99.90
1948;DHT22;974;52.400;9.818;2022-12-18T03:15:00;-6.80;99.90
1948;DHT22;974;52.400;9.818;2022-12-18T03:17:28;-6.70;99.90
1948;DHT22;974;52.400;9.818;2022-12-18T03:19:57;-6.60;99.90
1948;DHT22;974;52.400;9.818;2022-12-18T03:22:27;-6.50;99.90
1948;DHT22;974;52.400;9.818;2022-12-18T03:24:56;-6.40;99.90
1948;DHT22;974;52.400;9.818;2022-12-18T03:27:24;-6.20;99.90
1948;DHT22;974;52.400;9.818;2022-12-18T03:30:03;-6.20;99.90
1948;DHT22;974;52.400;9.818;2022-12-18T03:32:52;-6.30;99.90
1948;DHT22;974;52.400;9.818;2022-12-18T03:35:24;-6.30;99.90
1948;DHT22;974;52.400;9.818;2022-12-18T03:37:50;-6.30;99.90
1948;DHT22;974;52.400;9.818;2022-12-18T03:40:16;-6.30;99.90
1948;DHT22;974;52.400;9.818;2022-12-18T03:43:03;-6.30;99.90
1948;DHT22;974;52.400;9.818;2022-12-18T03:45:41;-6.40;99.90
1948;DHT22;974;52.400;9.818;2022-12-18T03:50:47;-6.50;99.90
1948;DHT22;974;52.400;9.818;2022-12-18T03:53:25;-6.60;99.90
1948;DHT22;974;52.400;9.818;2022-12-18T03:55:54;-6.70;99.90
1948;DHT22;974;52.400;9.818;2022-12-18T03:58:24;-6.80;99.90
1948;DHT22;974;52.400;9.818;2022-12-18T04:00:52;-7.00;99.90
1948;DHT22;974;52.400;9.818;2022-12-18T04:03:20;-7.00;99.90
1948;DHT22;974;52.400;9.818;2022-12-18T04:05:48;-7.10;99.90
1948;DHT22;974;52.400;9.818;2022-12-18T04:08:15;-7.20;99.90
1948;DHT22;974;52.400;9.818;2022-12-18T04:10:41;-7.30;99.90
1948;DHT22;974;52.400;9.818;2022-12-18T04:13:07;-7.40;99.90
1948;DHT22;974;52.400;9.818;2022-12-18T04:15:34;-7.40;99.90
1948;DHT22;974;52.400;9.818;2022-12-18T04:18:01;-7.60;99.90
1948;DHT22;974;52.400;9.818;2022-12-18T04:20:27;-7.50;99.90
1948;DHT22;974;52.400;9.818;2022-12-18T04:22:52;-7.60;99.90
1948;DHT22;974;52.400;9.818;2022-12-18T04:25:18;-7.60;99.90
1948;DHT22;974;52.400;9.818;2022-12-18T04:27:43;-7.60;99.90
1948;DHT22;974;52.400;9.818;2022-12-18T04:30:09;-7.70;99.90
1948;DHT22;974;52.400;9.818;2022-12-18T04:32:35;-7.70;99.90
1948;DHT22;974;52.400;9.818;2022-12-18T04:35:01;-7.70;99.90
1948;DHT22;974;52.400;9.818;2022-12-18T04:37:26;-7.80;99.90
1948;DHT22;974;52.400;9.818;2022-12-18T04:39:52;-7.80;99.90
1948;DHT22;974;52.400;9.818;2022-12-18T04:42:17;-7.80;99.90
1948;DHT22;974;52.400;9.818;2022-12-18T04:44:43;-7.90;99.90
1948;DHT22;974;52.400;9.818;2022-12-18T04:47:08;-7.80;99.90
1948;DHT22;974;52.400;9.818;2022-12-18T04:49:34;-7.90;99.90
1948;DHT22;974;52.400;9.818;2022-12-18T04:51:59;-8.00;99.90
1948;DHT22;974;52.400;9.818;2022-12-18T04:54:25;-8.00;99.90
1948;DHT22;974;52.400;9.818;2022-12-18T04:56:50;-7.90;99.90
1948;DHT22;974;52.400;9.818;2022-12-18T04:59:16;-7.80;99.90
1948;DHT22;974;52.400;9.818;2022-12-18T05:01:41;-7.80;99.90
1948;DHT22;974;52.400;9.818;2022-12-18T05:04:07;-7.80;99.90
1948;DHT22;974;52.400;9.818;2022-12-18T05:06:32;-7.80;99.90
1948;DHT22;974;52.400;9.818;2022-12-18T05:08:58;-7.80;99.90
1948;DHT22;974;52.400;9.818;2022-12-18T05:11:23;-7.90;99.90
1948;DHT22;974;52.400;9.818;2022-12-18T05:13:49;-7.80;99.90
1948;DHT22;974;52.400;9.818;2022-12-18T05:16:14;-7.90;99.90
1948;DHT22;974;52.400;9.818;2022-12-18T05:18:40;-7.90;99.90
1948;DHT22;974;52.400;9.818;2022-12-18T05:21:06;-7.80;99.90
1948;DHT22;974;52.400;9.818;2022-12-18T05:23:32;-7.90;99.90
1948;DHT22;974;52.400;9.818;2022-12-18T05:25:59;-7.90;99.90
1948;DHT22;974;52.400;9.818;2022-12-18T05:28:26;-8.00;99.90
1948;DHT22;974;52.400;9.818;2022-12-18T05:30:53;-8.00;99.90
1948;DHT22;974;52.400;9.818;2022-12-18T05:33:20;-8.10;99.90
1948;DHT22;974;52.400;9.818;2022-12-18T05:36:00;-8.10;99.90
1948;DHT22;974;52.400;9.818;2022-12-18T05:38:27;-8.10;99.90
1948;DHT22;974;52.400;9.818;2022-12-18T05:40:53;-8.10;99.90
1948;DHT22;974;52.400;9.818;2022-12-18T05:43:19;-8.10;99.90
1948;DHT22;974;52.400;9.818;2022-12-18T05:45:47;-8.00;99.90
1948;DHT22;974;52.400;9.818;2022-12-18T05:48:13;-8.00;99.90
1948;DHT22;974;52.400;9.818;2022-12-18T05:50:41;-8.00;99.90
1948;DHT22;974;52.400;9.818;2022-12-18T05:53:07;-8.00;99.90
1948;DHT22;974;52.400;9.818;2022-12-18T05:55:37;-8.10;99.90
1948;DHT22;974;52.400;9.818;2022-12-18T05:58:04;-8.10;99.90
1948;DHT22;974;52.400;9.818;2022-12-18T06:00:31;-8.20;99.90
1948;DHT22;974;52.400;9.818;2022-12-18T06:02:57;-8.20;99.90
1948;DHT22;974;52.400;9.818;2022-12-18T06:05:23;-8.20;99.90
1948;DHT22;974;52.400;9.818;2022-12-18T06:07:48;-8.20;99.90
1948;DHT22;974;52.400;9.818;2022-12-18T06:10:14;-8.20;99.90
1948;DHT22;974;52.400;9.818;2022-12-18T06:12:39;-8.20;99.90
1948;DHT22;974;52.400;9.818;2022-12-18T06:15:05;-8.30;99.90
1948;DHT22;974;52.400;9.818;2022-12-18T06:17:32;-8.30;99.90
1948;DHT22;974;52.400;9.818;2022-12-18T06:19:58;-8.40;99.90
1948;DHT22;974;52.400;9.818;2022-12-18T06:22:24;-8.40;99.90
1948;DHT22;974;52.400;9.818;2022-12-18T06:24:49;-8.50;99.90
1948;DHT22;974;52.400;9.818;2022-12-18T06:27:15;-8.40;99.90
1948;DHT22;974;52.400;9.818;2022-12-18T06:29:41;-8.40;99.90
1948;DHT22;974;52.400;9.818;2022-12-18T06:32:06;-8.30;99.90
1948;DHT22;974;52.400;9.818;2022-12-18T06:34:32;-8.10;99.90
1948;DHT22;974;52.400;9.818;2022-12-18T06:36:58;-8.10;99.90
1948;DHT22;974;52.400;9.818;2022-12-18T06:39:24;-8.00;99.90
1948;DHT22;974;52.400;9.818;2022-12-18T06:41:50;-7.80;99.90
1948;DHT22;974;52.400;9.818;2022-12-18T06:44:15;-7.80;99.90
1948;DHT22;974;52.400;9.818;2022-12-18T06:46:41;-7.70;99.90
1948;DHT22;974;52.400;9.818;2022-12-18T06:49:06;-7.60;99.90
1948;DHT22;974;52.400;9.818;2022-12-18T06:51:34;-7.70;99.90
1948;DHT22;974;52.400;9.818;2022-12-18T06:54:00;-7.70;99.90
1948;DHT22;974;52.400;9.818;2022-12-18T06:56:25;-7.70;99.90
1948;DHT22;974;52.400;9.818;2022-12-18T06:58:51;-7.80;99.90
1948;DHT22;974;52.400;9.818;2022-12-18T07:01:16;-7.90;99.90
1948;DHT22;974;52.400;9.818;2022-12-18T07:03:42;-7.90;99.90
1948;DHT22;974;52.400;9.818;2022-12-18T07:06:16;-8.00;99.90
1948;DHT22;974;52.400;9.818;2022-12-18T07:08:42;-8.00;99.90
1948;DHT22;974;52.400;9.818;2022-12-18T07:11:07;-8.10;99.90
1948;DHT22;974;52.400;9.818;2022-12-18T07:13:33;-8.10;99.90
1948;DHT22;974;52.400;9.818;2022-12-18T07:16:07;-8.10;99.90
1948;DHT22;974;52.400;9.818;2022-12-18T07:18:32;-8.20;99.90
1948;DHT22;974;52.400;9.818;2022-12-18T07:20:58;-8.20;99.90
1948;DHT22;974;52.400;9.818;2022-12-18T07:23:27;-8.30;99.90
1948;DHT22;974;52.400;9.818;2022-12-18T07:25:52;-8.30;99.90
1948;DHT22;974;52.400;9.818;2022-12-18T07:28:18;-8.20;99.90
1948;DHT22;974;52.400;9.818;2022-12-18T07:30:43;-8.30;99.90
1948;DHT22;974;52.400;9.818;2022-12-18T07:33:09;-8.30;99.90
1948;DHT22;974;52.400;9.818;2022-12-18T07:35:34;-8.30;99.90
1948;DHT22;974;52.400;9.818;2022-12-18T07:38:01;-8.30;99.90
1948;DHT22;974;52.400;9.818;2022-12-18T07:40:27;-8.30;99.90
1948;DHT22;974;52.400;9.818;2022-12-18T07:42:52;-8.10;99.90
1948;DHT22;974;52.400;9.818;2022-12-18T07:45:18;-8.20;99.90
1948;DHT22;974;52.400;9.818;2022-12-18T07:47:43;-8.00;99.90
1948;DHT22;974;52.400;9.818;2022-12-18T07:50:09;-7.90;99.90
1948;DHT22;974;52.400;9.818;2022-12-18T07:52:35;-7.80;99.90
1948;DHT22;974;52.400;9.818;2022-12-18T07:55:00;-7.80;99.90
1948;DHT22;974;52.400;9.818;2022-12-18T07:57:26;-7.70;99.90
1948;DHT22;974;52.400;9.818;2022-12-18T07:59:51;-7.70;99.90
1948;DHT22;974;52.400;9.818;2022-12-18T08:02:17;-7.80;99.90
1948;DHT22;974;52.400;9.818;2022-12-18T08:04:42;-7.70;99.90
1948;DHT22;974;52.400;9.818;2022-12-18T08:07:08;-7.60;99.90
1948;DHT22;974;52.400;9.818;2022-12-18T08:09:33;-7.60;99.90
1948;DHT22;974;52.400;9.818;2022-12-18T08:11:59;-7.50;99.90
1948;DHT22;974;52.400;9.818;2022-12-18T08:14:24;-7.50;99.90
1948;DHT22;974;52.400;9.818;2022-12-18T08:16:50;-7.40;99.90
1948;DHT22;974;52.400;9.818;2022-12-18T08:19:15;-7.40;99.90
1948;DHT22;974;52.400;9.818;2022-12-18T08:21:41;-7.30;99.90
1948;DHT22;974;52.400;9.818;2022-12-18T08:24:08;-7.30;99.90
1948;DHT22;974;52.400;9.818;2022-12-18T08:26:34;-7.30;99.90
1948;DHT22;974;52.400;9.818;2022-12-18T08:29:00;-7.20;99.90
1948;DHT22;974;52.400;9.818;2022-12-18T08:31:27;-7.20;99.90
1948;DHT22;974;52.400;9.818;2022-12-18T08:33:54;-7.20;99.90
1948;DHT22;974;52.400;9.818;2022-12-18T08:36:21;-7.20;99.90
1948;DHT22;974;52.400;9.818;2022-12-18T08:38:47;-7.00;99.90
1948;DHT22;974;52.400;9.818;2022-12-18T08:41:14;-7.00;99.90
1948;DHT22;974;52.400;9.818;2022-12-18T08:43:41;-6.90;99.90
1948;DHT22;974;52.400;9.818;2022-12-18T08:46:27;-6.90;99.90
1948;DHT22;974;52.400;9.818;2022-12-18T08:48:54;-6.80;99.90
1948;DHT22;974;52.400;9.818;2022-12-18T08:51:20;-6.80;99.90
1948;DHT22;974;52.400;9.818;2022-12-18T08:53:46;-6.70;99.90
1948;DHT22;974;52.400;9.818;2022-12-18T08:56:13;-6.50;99.90
1948;DHT22;974;52.400;9.818;2022-12-18T08:58:39;-6.50;99.90
1948;DHT22;974;52.400;9.818;2022-12-18T09:01:06;-6.50;99.90
1948;DHT22;974;52.400;9.818;2022-12-18T09:03:32;-6.30;99.90
1948;DHT22;974;52.400;9.818;2022-12-18T09:05:58;-6.30;99.90
1948;DHT22;974;52.400;9.818;2022-12-18T09:08:24;-6.20;99.90
1948;DHT22;974;52.400;9.818;2022-12-18T09:10:51;-6.00;99.90
1948;DHT22;974;52.400;9.818;2022-12-18T09:13:17;-5.90;99.90
1948;DHT22;974;52.400;9.818;2022-12-18T09:15:48;-5.80;99.90
1948;DHT22;974;52.400;9.818;2022-12-18T09:18:15;-5.60;99.90
1948;DHT22;974;52.400;9.818;2022-12-18T09:20:41;-5.50;99.90
1948;DHT22;974;52.400;9.818;2022-12-18T09:23:07;-5.40;99.90
1948;DHT22;974;52.400;9.818;2022-12-18T09:25:33;-5.40;99.90
1948;DHT22;974;52.400;9.818;2022-12-18T09:28:01;-5.20;99.90
1948;DHT22;974;52.400;9.818;2022-12-18T09:30:27;-5.10;99.90
1948;DHT22;974;52.400;9.818;2022-12-18T09:32:54;-5.10;99.90
1948;DHT22;974;52.400;9.818;2022-12-18T09:35:20;-5.00;99.90
1948;DHT22;974;52.400;9.818;2022-12-18T09:37:46;-4.80;99.90
1948;DHT22;974;52.400;9.818;2022-12-18T09:40:21;-4.80;99.90
1948;DHT22;974;52.400;9.818;2022-12-18T09:43:09;-4.60;99.90
1948;DHT22;974;52.400;9.818;2022-12-18T09:45:43;-4.50;99.90
1948;DHT22;974;52.400;9.818;2022-12-18T09:48:23;-4.30;99.90
1948;DHT22;974;52.400;9.818;2022-12-18T09:50:51;-4.10;99.90
1948;DHT22;974;52.400;9.818;2022-12-18T09:53:22;-4.00;99.90
1948;DHT22;974;52.400;9.818;2022-12-18T09:55:51;-3.80;99.90
1948;DHT22;974;52.400;9.818;2022-12-18T09:58:37;-3.70;99.90
1948;DHT22;974;52.400;9.818;2022-12-18T10:01:14;-3.60;99.90
1948;DHT22;974;52.400;9.818;2022-12-18T10:03:41;-3.50;99.90
1948;DHT22;974;52.400;9.818;2022-12-18T10:19:59;-2.90;99.90
1948;DHT22;974;52.400;9.818;2022-12-18T10:25:15;-2.70;99.90
1948;DHT22;974;52.400;9.818;2022-12-18T10:27:42;-2.60;99.90
1948;DHT22;974;52.400;9.818;2022-12-18T10:30:20;-2.50;99.90
1948;DHT22;974;52.400;9.818;2022-12-18T10:32:46;-2.40;99.90
1948;DHT22;974;52.400;9.818;2022-12-18T10:35:24;-2.30;99.90
1948;DHT22;974;52.400;9.818;2022-12-18T10:43:15;-2.10;99.90
1948;DHT22;974;52.400;9.818;2022-12-18T10:45:41;-2.10;99.90
1948;DHT22;974;52.400;9.818;2022-12-18T10:48:21;-1.90;99.90
1948;DHT22;974;52.400;9.818;2022-12-18T10:50:49;-1.70;99.90
1948;DHT22;974;52.400;9.818;2022-12-18T10:53:24;-1.70;99.90
1948;DHT22;974;52.400;9.818;2022-12-18T10:55:52;-1.60;99.90
1948;DHT22;974;52.400;9.818;2022-12-18T10:58:38;-1.50;99.90
1948;DHT22;974;52.400;9.818;2022-12-18T11:06:03;-1.40;99.90
1948;DHT22;974;52.400;9.818;2022-12-18T11:08:29;-1.30;99.90
1948;DHT22;974;52.400;9.818;2022-12-18T11:10:55;-1.20;99.90
1948;DHT22;974;52.400;9.818;2022-12-18T11:13:25;-1.10;99.90
1948;DHT22;974;52.400;9.818;2022-12-18T11:15:51;-1.00;99.90
1948;DHT22;974;52.400;9.818;2022-12-18T11:18:25;-0.90;99.90
1948;DHT22;974;52.400;9.818;2022-12-18T11:21:00;-0.90;99.90
1948;DHT22;974;52.400;9.818;2022-12-18T11:23:27;-0.80;99.90
1948;DHT22;974;52.400;9.818;2022-12-18T11:26:01;-0.70;99.90
1948;DHT22;974;52.400;9.818;2022-12-18T11:28:47;-0.70;99.90
1948;DHT22;974;52.400;9.818;2022-12-18T11:31:27;-0.70;99.90
1948;DHT22;974;52.400;9.818;2022-12-18T11:36:40;-0.50;99.90
1948;DHT22;974;52.400;9.818;2022-12-18T11:44:52;-0.40;99.90
1948;DHT22;974;52.400;9.818;2022-12-18T11:47:30;-0.50;99.90
1948;DHT22;974;52.400;9.818;2022-12-18T11:50:00;-0.50;99.90
1948;DHT22;974;52.400;9.818;2022-12-18T11:52:36;-0.40;99.90
1948;DHT22;974;52.400;9.818;2022-12-18T11:55:12;-0.40;99.90
1948;DHT22;974;52.400;9.818;2022-12-18T12:00:21;-0.30;99.90
1948;DHT22;974;52.400;9.818;2022-12-18T12:13:51;-0.20;99.90
1948;DHT22;974;52.400;9.818;2022-12-18T12:16:45;-0.10;99.90
1948;DHT22;974;52.400;9.818;2022-12-18T12:22:16;-0.10;99.90
1948;DHT22;974;52.400;9.818;2022-12-18T12:30:07;-0.20;99.90
1948;DHT22;974;52.400;9.818;2022-12-18T12:32:55;-0.30;99.90
1948;DHT22;974;52.400;9.818;2022-12-18T12:36:13;-0.30;99.90
1948;DHT22;974;52.400;9.818;2022-12-18T12:38:43;-0.20;99.90
1948;DHT22;974;52.400;9.818;2022-12-18T12:41:22;-0.10;99.90
1948;DHT22;974;52.400;9.818;2022-12-18T12:44:12;-0.10;99.90
1948;DHT22;974;52.400;9.818;2022-12-18T12:46:40;-0.20;99.90
1948;DHT22;974;52.400;9.818;2022-12-18T12:49:15;-0.10;99.90
1948;DHT22;974;52.400;9.818;2022-12-18T12:51:46;-0.10;99.90
1948;DHT22;974;52.400;9.818;2022-12-18T12:54:17;-0.20;99.90
1948;DHT22;974;52.400;9.818;2022-12-18T12:57:05;-0.20;99.90
1948;DHT22;974;52.400;9.818;2022-12-18T12:59:37;-0.10;99.90
1948;DHT22;974;52.400;9.818;2022-12-18T13:05:11;-0.20;99.90
1948;DHT22;974;52.400;9.818;2022-12-18T13:07:54;-0.20;99.90
1948;DHT22;974;52.400;9.818;2022-12-18T13:10:30;-0.30;99.90
1948;DHT22;974;52.400;9.818;2022-12-18T13:15:47;-0.40;99.90
1948;DHT22;974;52.400;9.818;2022-12-18T13:18:19;-0.30;99.90
1948;DHT22;974;52.400;9.818;2022-12-18T13:21:17;-0.40;99.90
1948;DHT22;974;52.400;9.818;2022-12-18T13:23:44;-0.50;99.90
1948;DHT22;974;52.400;9.818;2022-12-18T13:31:14;-0.60;99.90
1948;DHT22;974;52.400;9.818;2022-12-18T13:33:42;-0.70;99.90
1948;DHT22;974;52.400;9.818;2022-12-18T13:41:44;-0.70;99.90
1948;DHT22;974;52.400;9.818;2022-12-18T13:44:32;-0.70;99.90
1948;DHT22;974;52.400;9.818;2022-12-18T13:47:00;-0.80;99.90
1948;DHT22;974;52.400;9.818;2022-12-18T13:49:39;-0.80;99.90
1948;DHT22;974;52.400;9.818;2022-12-18T13:52:21;-0.90;99.90
1948;DHT22;974;52.400;9.818;2022-12-18T13:54:51;-0.90;99.90
1948;DHT22;974;52.400;9.818;2022-12-18T13:57:34;-0.90;99.90
1948;DHT22;974;52.400;9.818;2022-12-18T14:02:47;-1.10;99.90
1948;DHT22;974;52.400;9.818;2022-12-18T14:05:32;-1.00;99.90
1948;DHT22;974;52.400;9.818;2022-12-18T14:08:16;-1.10;99.90
1948;DHT22;974;52.400;9.818;2022-12-18T14:10:44;-1.10;99.90
1948;DHT22;974;52.400;9.818;2022-12-18T14:13:17;-1.20;99.90
1948;DHT22;974;52.400;9.818;2022-12-18T14:15:46;-1.20;99.90
1948;DHT22;974;52.400;9.818;2022-12-18T14:18:24;-1.20;99.90
1948;DHT22;974;52.400;9.818;2022-12-18T14:20:52;-1.20;99.90
1948;DHT22;974;52.400;9.818;2022-12-18T14:23:34;-1.20;99.90
1948;DHT22;974;52.400;9.818;2022-12-18T14:26:02;-1.30;99.90
1948;DHT22;974;52.400;9.818;2022-12-18T14:28:28;-1.30;99.90
1948;DHT22;974;52.400;9.818;2022-12-18T14:30:55;-1.30;99.90
1948;DHT22;974;52.400;9.818;2022-12-18T14:33:26;-1.30;99.90
1948;DHT22;974;52.400;9.818;2022-12-18T14:35:54;-1.40;99.90
1948;DHT22;974;52.400;9.818;2022-12-18T14:38:35;-1.50;99.90
1948;DHT22;974;52.400;9.818;2022-12-18T14:41:09;-1.50;99.90
1948;DHT22;974;52.400;9.818;2022-12-18T14:43:36;-1.60;99.90
1948;DHT22;974;52.400;9.818;2022-12-18T14:46:04;-1.70;99.90
1948;DHT22;974;52.400;9.818;2022-12-18T14:48:41;-1.60;99.90
1948;DHT22;974;52.400;9.818;2022-12-18T14:53:42;-1.80;99.90
1948;DHT22;974;52.400;9.818;2022-12-18T14:56:33;-1.70;99.90
1948;DHT22;974;52.400;9.818;2022-12-18T14:59:04;-1.80;99.90
1948;DHT22;974;52.400;9.818;2022-12-18T15:01:37;-1.60;99.90
1948;DHT22;974;52.400;9.818;2022-12-18T15:04:04;-1.90;99.90
1948;DHT22;974;52.400;9.818;2022-12-18T15:06:31;-1.90;99.90
1948;DHT22;974;52.400;9.818;2022-12-18T15:08:59;-1.90;99.90
1948;DHT22;974;52.400;9.818;2022-12-18T15:13:51;-1.90;99.90
1948;DHT22;974;52.400;9.818;2022-12-18T15:16:17;-2.00;99.90
1948;DHT22;974;52.400;9.818;2022-12-18T15:18:43;-2.00;99.90
1948;DHT22;974;52.400;9.818;2022-12-18T15:21:11;-2.00;99.90
1948;DHT22;974;52.400;9.818;2022-12-18T15:26:11;-1.90;99.90
1948;DHT22;974;52.400;9.818;2022-12-18T15:28:54;-1.90;99.90
1948;DHT22;974;52.400;9.818;2022-12-18T15:31:24;-1.90;99.90
1948;DHT22;974;52.400;9.818;2022-12-18T15:36:20;-2.00;99.90
1948;DHT22;974;52.400;9.818;2022-12-18T15:38:47;-2.00;99.90
1948;DHT22;974;52.400;9.818;2022-12-18T15:41:14;-2.00;99.90
1948;DHT22;974;52.400;9.818;2022-12-18T15:43:40;-2.00;99.90
1948;DHT22;974;52.400;9.818;2022-12-18T15:46:17;-2.00;99.90
1948;DHT22;974;52.400;9.818;2022-12-18T15:48:45;-2.10;99.90
1948;DHT22;974;52.400;9.818;2022-12-18T15:51:20;-2.00;99.90
1948;DHT22;974;52.400;9.818;2022-12-18T15:53:47;-2.10;99.90
1948;DHT22;974;52.400;9.818;2022-12-18T15:56:14;-2.10;99.90
1948;DHT22;974;52.400;9.818;2022-12-18T15:58:59;-2.10;99.90
1948;DHT22;974;52.400;9.818;2022-12-18T16:01:30;-2.10;99.90
1948;DHT22;974;52.400;9.818;2022-12-18T16:03:56;-2.20;99.90
1948;DHT22;974;52.400;9.818;2022-12-18T16:06:22;-2.10;99.90
1948;DHT22;974;52.400;9.818;2022-12-18T16:08:48;-2.10;99.90
1948;DHT22;974;52.400;9.818;2022-12-18T16:11:25;-2.10;99.90
1948;DHT22;974;52.400;9.818;2022-12-18T16:14:23;-2.10;99.90
1948;DHT22;974;52.400;9.818;2022-12-18T16:16:52;-2.00;99.90
1948;DHT22;974;52.400;9.818;2022-12-18T16:19:18;-2.00;99.90
1948;DHT22;974;52.400;9.818;2022-12-18T16:21:45;-2.00;99.90
1948;DHT22;974;52.400;9.818;2022-12-18T16:24:16;-2.10;99.90
1948;DHT22;974;52.400;9.818;2022-12-18T16:26:42;-2.10;99.90
1948;DHT22;974;52.400;9.818;2022-12-18T16:29:09;-2.00;99.90
1948;DHT22;974;52.400;9.818;2022-12-18T16:31:35;-2.10;99.90
1948;DHT22;974;52.400;9.818;2022-12-18T16:34:31;-2.10;99.90
1948;DHT22;974;52.400;9.818;2022-12-18T16:37:02;-2.00;99.90
1948;DHT22;974;52.400;9.818;2022-12-18T16:39:28;-2.00;99.90
1948;DHT22;974;52.400;9.818;2022-12-18T16:41:55;-2.10;99.90
1948;DHT22;974;52.400;9.818;2022-12-18T16:44:21;-2.00;99.90
1948;DHT22;974;52.400;9.818;2022-12-18T16:46:46;-2.00;99.90
1948;DHT22;974;52.400;9.818;2022-12-18T16:49:13;-2.00;99.90
1948;DHT22;974;52.400;9.818;2022-12-18T16:51:39;-1.90;99.90
1948;DHT22;974;52.400;9.818;2022-12-18T16:54:05;-1.90;99.90
1948;DHT22;974;52.400;9.818;2022-12-18T16:56:31;-1.90;99.90
1948;DHT22;974;52.400;9.818;2022-12-18T16:58:58;-1.90;99.90
1948;DHT22;974;52.400;9.818;2022-12-18T17:01:25;-1.90;99.90
1948;DHT22;974;52.400;9.818;2022-12-18T17:04:02;-1.80;99.90
1948;DHT22;974;52.400;9.818;2022-12-18T17:06:29;-1.80;99.90
1948;DHT22;974;52.400;9.818;2022-12-18T17:09:00;-1.80;99.90
1948;DHT22;974;52.400;9.818;2022-12-18T17:11:27;-1.80;99.90
1948;DHT22;974;52.400;9.818;2022-12-18T17:13:53;-1.80;99.90
1948;DHT22;974;52.400;9.818;2022-12-18T17:16:19;-1.90;99.90
1948;DHT22;974;52.400;9.818;2022-12-18T17:18:45;-1.80;99.90
1948;DHT22;974;52.400;9.818;2022-12-18T17:21:11;-1.80;99.90
1948;DHT22;974;52.400;9.818;2022-12-18T17:23:39;-1.80;99.90
1948;DHT22;974;52.400;9.818;2022-12-18T17:26:05;-1.80;99.90
1948;DHT22;974;52.400;9.818;2022-12-18T17:28:33;-1.70;99.90
1948;DHT22;974;52.400;9.818;2022-12-18T17:30:59;-1.70;99.90
1948;DHT22;974;52.400;9.818;2022-12-18T17:33:25;-1.70;99.90
1948;DHT22;974;52.400;9.818;2022-12-18T17:35:50;-1.70;99.90
1948;DHT22;974;52.400;9.818;2022-12-18T17:38:16;-1.70;99.90
1948;DHT22;974;52.400;9.818;2022-12-18T17:40:41;-1.70;99.90
1948;DHT22;974;52.400;9.818;2022-12-18T17:43:08;-1.70;99.90
1948;DHT22;974;52.400;9.818;2022-12-18T17:45:38;-1.70;99.90
1948;DHT22;974;52.400;9.818;2022-12-18T17:48:04;-1.70;99.90
1948;DHT22;974;52.400;9.818;2022-12-18T17:50:32;-1.60;99.90
1948;DHT22;974;52.400;9.818;2022-12-18T17:52:57;-1.60;99.90
1948;DHT22;974;52.400;9.818;2022-12-18T17:55:23;-1.60;99.90
1948;DHT22;974;52.400;9.818;2022-12-18T17:57:49;-1.60;99.90
1948;DHT22;974;52.400;9.818;2022-12-18T18:00:15;-1.60;99.90
1948;DHT22;974;52.400;9.818;2022-12-18T18:02:40;-1.60;99.90
1948;DHT22;974;52.400;9.818;2022-12-18T18:05:06;-1.60;99.90
1948;DHT22;974;52.400;9.818;2022-12-18T18:07:32;-1.60;99.90
1948;DHT22;974;52.400;9.818;2022-12-18T18:09:58;-1.60;99.90
1948;DHT22;974;52.400;9.818;2022-12-18T18:12:23;-1.60;99.90
1948;DHT22;974;52.400;9.818;2022-12-18T18:15:07;-1.60;99.90
1948;DHT22;974;52.400;9.818;2022-12-18T18:17:33;-1.60;99.90
1948;DHT22;974;52.400;9.818;2022-12-18T18:19:58;-1.60;99.90